Time,TemperatureF,DewpointF,PressureIn,WindDirection,WindDirectionDegrees,WindSpeedMPH,WindSpeedGustMPH,Humidity,HourlyPrecipIn,Conditions,Clouds,dailyrainin,SoftwareType,DateUTC
2013-07-13 00:00:00,69.6,67.5,29.93,NNE,28,0.0,3.0,93,0.00,,---,0.36,VWS V14.01,2013-07-13 04:00:00,
2013-07-13 00:01:00,69.6,67.5,29.93,NNE,28,0.0,3.0,93,0.00,,---,0.36,VWS V14.01,2013-07-13 04:01:00,
2013-07-13 00:02:00,69.6,67.5,29.93,NNE,28,0.0,0.0,93,0.00,,---,0.00,VWS V14.01,2013-07-13 04:02:00,
2013-07-13 00:07:00,69.5,67.4,29.94,NNE,28,0.0,0.0,93,0.00,,---,0.00,VWS V14.01,2013-07-13 04:07:00,
2013-07-13 00:12:00,69.4,67.3,29.94,NNE,28,0.0,0.0,93,0.00,,---,0.00,VWS V14.01,2013-07-13 04:12:00,
2013-07-13 00:17:00,69.3,67.2,29.94,NNE,28,0.0,0.0,93,0.00,,---,0.00,VWS V14.01,2013-07-13 04:17:00,
2013-07-13 00:50:00,69.2,67.1,29.94,NNE,28,0.0,0.0,93,0.00,,---,0.00,VWS V14.01,2013-07-13 04:50:00,
2013-07-13 00:55:00,68.6,66.8,29.95,NNE,28,0.0,1.0,94,0.00,,---,0.00,VWS V14.01,2013-07-13 04:55:00,
2013-07-13 01:00:00,68.6,66.8,29.95,NNE,28,0.0,1.0,94,0.00,,---,0.00,VWS V14.01,2013-07-13 05:00:00,
2013-07-13 01:05:00,68.7,66.9,29.95,NNE,28,0.0,1.0,94,0.00,,---,0.00,VWS V14.01,2013-07-13 05:05:00,
2013-07-13 01:10:00,68.7,66.9,29.94,NNE,28,0.0,1.0,94,0.00,,---,0.00,VWS V14.01,2013-07-13 05:10:00,
2013-07-13 01:15:00,68.8,67.0,29.95,NNE,28,0.0,1.0,94,0.00,,---,0.00,VWS V14.01,2013-07-13 05:15:00,
2013-07-13 01:20:00,68.8,67.0,29.95,NNE,28,3.0,4.0,94,0.00,,---,0.00,VWS V14.01,2013-07-13 05:20:00,
2013-07-13 01:52:00,68.8,67.0,29.95,NNE,28,2.0,4.0,94,0.00,,---,0.00,VWS V14.01,2013-07-13 05:52:00,
2013-07-13 01:57:00,70.0,67.3,29.95,NNE,28,2.0,9.0,91,0.00,,---,0.00,VWS V14.01,2013-07-13 05:57:00,
2013-07-13 02:00:00,70.0,67.3,29.95,NNE,28,1.0,9.0,91,0.00,,---,0.00,VWS V14.01,2013-07-13 06:00:00,
2013-07-13 02:02:00,69.9,67.2,29.95,NNE,28,2.0,3.0,91,0.00,,---,0.00,VWS V14.01,2013-07-13 06:02:00,
2013-07-13 02:07:00,69.8,67.1,29.95,NNE,28,3.0,5.0,91,0.00,,---,0.00,VWS V14.01,2013-07-13 06:07:00,
2013-07-13 02:12:00,69.7,67.0,29.95,NNE,29,0.0,6.0,91,0.00,,---,0.00,VWS V14.01,2013-07-13 06:12:00,
2013-07-13 02:17:00,69.6,67.2,29.95,NNE,29,0.0,6.0,92,0.00,,---,0.00,VWS V14.01,2013-07-13 06:17:00,
2013-07-13 02:22:00,69.5,67.1,29.95,NNE,29,0.0,6.0,92,0.00,,---,0.00,VWS V14.01,2013-07-13 06:22:00,
2013-07-13 02:27:00,69.5,67.1,29.95,NNE,29,0.0,6.0,92,0.00,,---,0.00,VWS V14.01,2013-07-13 06:27:00,
2013-07-13 02:30:00,69.5,67.1,29.95,NNE,29,0.0,6.0,92,0.00,,---,0.00,VWS V14.01,2013-07-13 06:30:00,
2013-07-13 02:32:00,69.6,67.2,29.95,NNE,29,0.0,3.0,92,0.00,,---,0.00,VWS V14.01,2013-07-13 06:32:00,
2013-07-13 02:37:00,69.8,67.4,29.95,NNE,29,1.0,3.0,92,0.00,,---,0.00,VWS V14.01,2013-07-13 06:37:00,
2013-07-13 02:42:00,70.1,67.4,29.95,NNE,29,3.0,7.0,91,0.00,,---,0.00,VWS V14.01,2013-07-13 06:42:00,
2013-07-13 02:47:00,70.4,67.3,29.95,NNE,29,4.0,9.0,90,0.00,,---,0.00,VWS V14.01,2013-07-13 06:47:00,
2013-07-13 02:52:00,70.6,67.5,29.95,NNE,30,2.0,9.0,90,0.00,,---,0.00,VWS V14.01,2013-07-13 06:52:00,
2013-07-13 02:57:00,70.6,67.5,29.95,NNE,30,0.0,9.0,90,0.00,,---,0.00,VWS V14.01,2013-07-13 06:57:00,
2013-07-13 03:00:00,70.7,67.6,29.95,NNE,30,1.0,9.0,90,0.00,,---,0.00,VWS V14.01,2013-07-13 07:00:00,
2013-07-13 03:02:00,70.7,67.6,29.94,NNE,29,5.0,5.0,90,0.00,,---,0.00,VWS V14.01,2013-07-13 07:02:00,
2013-07-13 03:07:00,70.7,67.6,29.94,NNE,30,1.0,5.0,90,0.00,,---,0.00,VWS V14.01,2013-07-13 07:07:00,
2013-07-13 03:12:00,70.7,67.6,29.94,NNE,30,0.0,5.0,90,0.00,,---,0.00,VWS V14.01,2013-07-13 07:12:00,
2013-07-13 03:17:00,70.7,67.6,29.95,NNE,29,1.0,6.0,90,0.00,,---,0.00,VWS V14.01,2013-07-13 07:17:00,
2013-07-13 03:22:00,70.8,67.7,29.95,NNE,29,0.0,6.0,90,0.00,,---,0.00,VWS V14.01,2013-07-13 07:22:00,
2013-07-13 03:27:00,70.8,67.7,29.95,NNE,29,4.0,6.0,90,0.00,,---,0.00,VWS V14.01,2013-07-13 07:27:00,
2013-07-13 03:30:00,70.8,67.7,29.94,NNE,28,6.0,7.0,90,0.00,,---,0.00,VWS V14.01,2013-07-13 07:30:00,
2013-07-13 03:32:00,70.8,67.7,29.94,NNE,28,4.0,6.0,90,0.00,,---,0.00,VWS V14.01,2013-07-13 07:32:00,
2013-07-13 03:37:00,70.8,67.7,29.94,NNE,28,3.0,7.0,90,0.00,,---,0.00,VWS V14.01,2013-07-13 07:37:00,
2013-07-13 03:42:00,70.7,67.6,29.93,NNE,28,5.0,7.0,90,0.00,,---,0.00,VWS V14.01,2013-07-13 07:42:00,
2013-07-13 03:47:00,70.4,67.7,29.93,NNE,28,3.0,7.0,91,0.00,,---,0.00,VWS V14.01,2013-07-13 07:47:00,
2013-07-13 03:52:00,70.2,67.4,29.93,NNE,28,3.0,7.0,91,0.00,,---,0.00,VWS V14.01,2013-07-13 07:52:00,
2013-07-13 03:55:00,70.1,67.7,29.93,NNE,28,2.0,7.0,92,0.00,,---,0.00,VWS V14.01,2013-07-13 07:55:00,
2013-07-13 04:58:00,70.1,67.7,29.93,NNE,28,2.0,7.0,92,0.00,,---,0.00,VWS V14.01,2013-07-13 08:58:00,
2013-07-13 05:00:00,70.3,68.2,29.94,NNE,28,3.0,7.0,93,0.00,,---,0.00,VWS V14.01,2013-07-13 09:00:00,
2013-07-13 05:03:00,70.3,68.2,29.94,NNE,28,5.0,7.0,93,0.00,,---,0.00,VWS V14.01,2013-07-13 09:03:00,
2013-07-13 05:08:00,70.4,68.3,29.94,NE,36,6.0,10.0,93,0.00,,---,0.00,VWS V14.01,2013-07-13 09:08:00,
2013-07-13 06:00:00,70.5,68.4,29.94,NE,41,8.0,12.0,93,0.00,,---,0.00,VWS V14.01,2013-07-13 10:00:00,
2013-07-13 06:05:00,71.1,69.0,29.95,NE,44,6.0,16.0,93,0.00,,---,0.00,VWS V14.01,2013-07-13 10:05:00,
2013-07-13 06:10:00,71.2,69.1,29.95,NE,44,2.0,16.0,93,0.00,,---,0.00,VWS V14.01,2013-07-13 10:10:00,
2013-07-13 06:15:00,71.2,69.1,29.95,NE,38,4.0,16.0,93,0.00,,---,0.00,VWS V14.01,2013-07-13 10:15:00,
2013-07-13 06:20:00,71.2,69.1,29.95,NNE,32,9.0,16.0,93,0.00,,---,0.00,VWS V14.01,2013-07-13 10:20:00,
2013-07-13 11:23:00,71.1,69.0,29.96,NNE,32,6.0,16.0,93,0.00,,---,0.00,VWS V14.01,2013-07-13 15:23:00,
2013-07-13 11:28:00,72.5,69.4,30.03,NE,38,3.0,16.0,90,0.02,,---,0.02,VWS V14.01,2013-07-13 15:28:00,
2013-07-13 11:30:00,72.7,69.6,30.03,NE,36,12.0,16.0,90,0.02,,---,0.02,VWS V14.01,2013-07-13 15:30:00,
2013-07-13 11:33:00,72.7,69.3,30.03,NE,39,9.0,18.0,89,0.00,,---,0.02,VWS V14.01,2013-07-13 15:33:00,
2013-07-13 11:38:00,72.9,69.5,30.03,NE,45,10.0,18.0,89,0.00,,---,0.02,VWS V14.01,2013-07-13 15:38:00,
2013-07-13 11:43:00,73.2,69.8,30.03,NNE,26,11.0,18.0,89,0.00,,---,0.02,VWS V14.01,2013-07-13 15:43:00,
2013-07-13 11:48:00,73.2,69.4,30.04,ENE,61,11.0,18.0,88,0.00,,---,0.02,VWS V14.01,2013-07-13 15:48:00,
2013-07-13 11:53:00,73.2,69.4,30.04,NE,37,9.0,18.0,88,0.00,,---,0.02,VWS V14.01,2013-07-13 15:53:00,
2013-07-13 11:58:00,73.4,69.6,30.04,NNE,28,9.0,18.0,88,0.00,,---,0.02,VWS V14.01,2013-07-13 15:58:00,
2013-07-13 12:00:00,73.4,69.6,30.04,NE,53,7.0,18.0,88,0.00,,---,0.02,VWS V14.01,2013-07-13 16:00:00,
2013-07-13 12:03:00,73.3,69.5,30.04,NE,38,12.0,15.0,88,0.00,,---,0.02,VWS V14.01,2013-07-13 16:03:00,
2013-07-13 12:08:00,73.2,69.4,30.04,ENE,69,2.0,16.0,88,0.00,,---,0.02,VWS V14.01,2013-07-13 16:08:00,
2013-07-13 12:13:00,73.2,69.8,30.05,NE,38,11.0,16.0,89,0.00,,---,0.02,VWS V14.01,2013-07-13 16:13:00,
2013-07-13 12:18:00,73.1,69.7,30.05,NE,44,6.0,16.0,89,0.00,,---,0.02,VWS V14.01,2013-07-13 16:18:00,
2013-07-13 12:23:00,73.2,69.8,30.04,NE,42,6.0,16.0,89,0.00,,---,0.02,VWS V14.01,2013-07-13 16:23:00,
2013-07-13 12:28:00,73.2,69.8,30.04,NE,55,9.0,16.0,89,0.00,,---,0.02,VWS V14.01,2013-07-13 16:28:00,
2013-07-13 12:30:00,73.2,70.1,30.04,NE,45,5.0,16.0,90,0.00,,---,0.02,VWS V14.01,2013-07-13 16:30:00,
2013-07-13 12:33:00,73.3,69.9,30.04,ENE,61,7.0,14.0,89,0.00,,---,0.02,VWS V14.01,2013-07-13 16:33:00,
2013-07-13 12:38:00,73.5,70.1,30.04,NE,36,7.0,14.0,89,0.00,,---,0.02,VWS V14.01,2013-07-13 16:38:00,
2013-07-13 12:43:00,73.6,70.2,30.04,NE,45,4.0,14.0,89,0.00,,---,0.02,VWS V14.01,2013-07-13 16:43:00,
2013-07-13 12:48:00,73.8,70.4,30.04,NE,35,9.0,14.0,89,0.00,,---,0.02,VWS V14.01,2013-07-13 16:48:00,
2013-07-13 12:53:00,74.0,70.2,30.04,NE,38,7.0,17.0,88,0.00,,---,0.02,VWS V14.01,2013-07-13 16:53:00,
2013-07-13 12:58:00,74.2,70.4,30.04,NE,36,3.0,17.0,88,0.00,,---,0.02,VWS V14.01,2013-07-13 16:58:00,
2013-07-13 13:00:00,74.3,70.2,30.04,NE,44,10.0,17.0,87,0.00,,---,0.02,VWS V14.01,2013-07-13 17:00:00,
2013-07-13 13:03:00,74.1,70.0,30.04,NE,51,6.0,17.0,87,0.00,,---,0.02,VWS V14.01,2013-07-13 17:03:00,
2013-07-13 13:08:00,74.2,70.4,30.04,NE,38,5.0,17.0,88,0.00,,---,0.02,VWS V14.01,2013-07-13 17:08:00,
2013-07-13 13:13:00,74.5,70.7,30.04,NE,39,2.0,17.0,88,0.00,,---,0.02,VWS V14.01,2013-07-13 17:13:00,
2013-07-13 13:18:00,75.0,70.5,30.04,NNE,28,6.0,17.0,86,0.00,,---,0.02,VWS V14.01,2013-07-13 17:18:00,
2013-07-13 13:23:00,75.0,70.5,30.04,NE,40,4.0,17.0,86,0.00,,---,0.02,VWS V14.01,2013-07-13 17:23:00,
2013-07-13 13:28:00,75.3,70.5,30.03,NE,37,10.0,17.0,85,0.00,,---,0.02,VWS V14.01,2013-07-13 17:28:00,
2013-07-13 14:16:00,78.2,72.3,30.02,NNE,22,8.0,17.0,82,0.00,,---,0.02,VWS V14.01,2013-07-13 18:16:00,
2013-07-13 14:21:00,78.6,73.0,30.02,NNE,26,9.0,17.0,83,0.00,,---,0.02,VWS V14.01,2013-07-13 18:21:00,
2013-07-13 14:26:00,78.9,72.2,30.02,NE,50,10.0,17.0,80,0.00,,---,0.02,VWS V14.01,2013-07-13 18:26:00,
2013-07-13 14:30:00,78.6,71.9,30.02,NE,41,11.0,17.0,80,0.00,,---,0.02,VWS V14.01,2013-07-13 18:30:00,
2013-07-13 14:31:00,78.6,71.6,30.02,NE,44,4.0,11.0,79,0.00,,---,0.02,VWS V14.01,2013-07-13 18:31:00,
2013-07-13 14:36:00,78.6,71.2,30.02,NE,51,13.0,17.0,78,0.00,,---,0.02,VWS V14.01,2013-07-13 18:36:00,
2013-07-13 14:41:00,78.6,71.6,30.02,NE,47,13.0,17.0,79,0.00,,---,0.02,VWS V14.01,2013-07-13 18:41:00,
2013-07-13 14:46:00,78.5,71.4,30.02,ENE,69,2.0,17.0,79,0.00,,---,0.02,VWS V14.01,2013-07-13 18:46:00,
2013-07-13 14:51:00,78.5,71.8,30.02,NNE,22,11.0,17.0,80,0.00,,---,0.02,VWS V14.01,2013-07-13 18:51:00,
2013-07-13 14:56:00,78.2,71.5,30.02,NNE,28,12.0,17.0,80,0.00,,---,0.02,VWS V14.01,2013-07-13 18:56:00,
2013-07-13 15:00:00,77.7,71.0,30.02,NE,49,10.0,17.0,80,0.00,,---,0.02,VWS V14.01,2013-07-13 19:00:00,
2013-07-13 15:01:00,77.7,71.4,30.02,ENE,58,6.0,11.0,81,0.00,,---,0.02,VWS V14.01,2013-07-13 19:01:00,
2013-07-13 15:06:00,77.7,71.8,30.01,NE,42,9.0,12.0,82,0.00,,---,0.02,VWS V14.01,2013-07-13 19:06:00,
2013-07-13 15:11:00,77.9,72.0,30.01,NE,35,5.0,14.0,82,0.00,,---,0.02,VWS V14.01,2013-07-13 19:11:00,
2013-07-13 15:16:00,78.3,72.0,30.01,ENE,68,6.0,17.0,81,0.00,,---,0.02,VWS V14.01,2013-07-13 19:16:00,
2013-07-13 15:21:00,78.3,70.9,30.01,NE,40,12.0,17.0,78,0.00,,---,0.02,VWS V14.01,2013-07-13 19:21:00,
2013-07-13 15:26:00,78.0,71.3,30.02,ENE,67,7.0,17.0,80,0.00,,---,0.02,VWS V14.01,2013-07-13 19:26:00,
2013-07-13 15:30:00,77.8,71.5,30.01,NE,44,6.0,17.0,81,0.00,,---,0.02,VWS V14.01,2013-07-13 19:30:00,
2013-07-13 15:31:00,77.8,71.5,30.01,NE,43,4.0,6.0,81,0.00,,---,0.02,VWS V14.01,2013-07-13 19:31:00,
2013-07-13 15:36:00,78.1,72.2,30.01,NNE,28,5.0,12.0,82,0.00,,---,0.02,VWS V14.01,2013-07-13 19:36:00,
2013-07-13 15:41:00,78.1,71.4,30.01,NE,56,8.0,14.0,80,0.00,,---,0.02,VWS V14.01,2013-07-13 19:41:00,
2013-07-13 15:46:00,78.1,71.4,30.01,NNE,32,11.0,17.0,80,0.00,,---,0.02,VWS V14.01,2013-07-13 19:46:00,
2013-07-13 15:51:00,77.9,71.2,30.01,NE,34,10.0,17.0,80,0.00,,---,0.02,VWS V14.01,2013-07-13 19:51:00,
2013-07-13 15:56:00,77.9,71.2,30.01,NNE,32,5.0,17.0,80,0.00,,---,0.02,VWS V14.01,2013-07-13 19:56:00,
2013-07-13 16:00:00,77.9,71.6,30.01,NNE,28,7.0,17.0,81,0.00,,---,0.02,VWS V14.01,2013-07-13 20:00:00,
2013-07-13 16:01:00,77.9,71.6,30.01,ENE,67,9.0,9.0,81,0.00,,---,0.02,VWS V14.01,2013-07-13 20:01:00,
2013-07-13 16:06:00,78.1,71.8,30.01,NNE,21,6.0,9.0,81,0.00,,---,0.02,VWS V14.01,2013-07-13 20:06:00,
2013-07-13 16:11:00,77.9,71.6,30.01,NNE,29,7.0,12.0,81,0.00,,---,0.02,VWS V14.01,2013-07-13 20:11:00,
2013-07-13 16:16:00,77.7,71.8,30.01,NE,34,5.0,13.0,82,0.00,,---,0.02,VWS V14.01,2013-07-13 20:16:00,
2013-07-13 16:21:00,77.5,71.9,30.01,NE,34,6.0,13.0,83,0.00,,---,0.02,VWS V14.01,2013-07-13 20:21:00,
2013-07-13 16:26:00,77.6,72.0,30.01,NE,38,10.0,13.0,83,0.00,,---,0.02,VWS V14.01,2013-07-13 20:26:00,
2013-07-13 16:30:00,77.7,72.1,30.01,NNE,27,10.0,13.0,83,0.00,,---,0.02,VWS V14.01,2013-07-13 20:30:00,
2013-07-13 16:31:00,77.8,71.9,30.01,NNE,27,7.0,10.0,82,0.00,,---,0.02,VWS V14.01,2013-07-13 20:31:00,
2013-07-13 16:34:00,77.8,71.9,30.01,NE,45,6.0,16.0,82,0.00,,---,0.02,VWS V14.01,2013-07-13 20:34:00,
2013-07-13 17:22:00,77.8,71.9,30.01,NE,44,7.0,16.0,82,0.00,,---,0.02,VWS V14.01,2013-07-13 21:22:00,
2013-07-13 17:27:00,77.5,71.9,30.00,NE,41,7.0,16.0,83,0.00,,---,0.02,VWS V14.01,2013-07-13 21:27:00,
2013-07-13 17:30:00,77.4,71.8,30.00,NE,40,2.0,16.0,83,0.00,,---,0.02,VWS V14.01,2013-07-13 21:30:00,
2013-07-13 17:32:00,77.5,72.3,30.00,NE,40,1.0,4.0,84,0.00,,---,0.02,VWS V14.01,2013-07-13 21:32:00,
2013-07-13 17:37:00,77.6,72.4,30.00,NE,41,2.0,10.0,84,0.00,,---,0.02,VWS V14.01,2013-07-13 21:37:00,
2013-07-13 17:42:00,77.4,72.2,30.01,NE,44,4.0,10.0,84,0.00,,---,0.02,VWS V14.01,2013-07-13 21:42:00,
2013-07-13 17:47:00,77.3,72.1,30.00,NE,44,3.0,10.0,84,0.00,,---,0.02,VWS V14.01,2013-07-13 21:47:00,
2013-07-13 17:52:00,77.1,71.5,30.01,NE,49,5.0,10.0,83,0.00,,---,0.02,VWS V14.01,2013-07-13 21:52:00,
2013-07-13 18:24:00,77.1,71.5,30.01,NE,49,4.0,10.0,83,0.00,,---,0.02,VWS V14.01,2013-07-13 22:24:00,
2013-07-13 18:29:00,77.0,71.4,30.02,ENE,64,8.0,16.0,83,0.00,,---,0.02,VWS V14.01,2013-07-13 22:29:00,
2013-07-13 18:30:00,76.9,71.7,30.02,ENE,59,3.0,16.0,84,0.00,,---,0.02,VWS V14.01,2013-07-13 22:30:00,
2013-07-13 18:34:00,76.8,71.6,30.02,ENE,59,4.0,10.0,84,0.00,,---,0.02,VWS V14.01,2013-07-13 22:34:00,
2013-07-13 18:39:00,76.6,70.7,30.02,NE,42,5.0,14.0,82,0.00,,---,0.02,VWS V14.01,2013-07-13 22:39:00,
2013-07-13 18:44:00,76.2,70.7,30.02,NNE,32,9.0,15.0,83,0.00,,---,0.02,VWS V14.01,2013-07-13 22:44:00,
2013-07-13 18:49:00,75.9,70.4,30.02,NNE,29,6.0,17.0,83,0.00,,---,0.02,VWS V14.01,2013-07-13 22:49:00,
2013-07-13 18:54:00,75.7,70.5,30.02,ENE,59,9.0,17.0,84,0.00,,---,0.02,VWS V14.01,2013-07-13 22:54:00,
2013-07-13 18:59:00,75.5,70.3,30.02,NNE,28,4.0,17.0,84,0.00,,---,0.02,VWS V14.01,2013-07-13 22:59:00,
2013-07-13 19:00:00,75.5,70.3,30.02,NNE,29,9.0,17.0,84,0.00,,---,0.02,VWS V14.01,2013-07-13 23:00:00,
2013-07-13 19:04:00,75.4,70.2,30.02,NE,42,5.0,9.0,84,0.00,,---,0.02,VWS V14.01,2013-07-13 23:04:00,
2013-07-13 19:09:00,75.3,70.5,30.02,NE,40,4.0,10.0,85,0.00,,---,0.02,VWS V14.01,2013-07-13 23:09:00,
2013-07-13 19:14:00,75.2,70.4,30.03,NE,39,6.0,10.0,85,0.00,,---,0.02,VWS V14.01,2013-07-13 23:14:00,
2013-07-13 19:19:00,75.2,70.4,30.02,NE,44,7.0,10.0,85,0.00,,---,0.02,VWS V14.01,2013-07-13 23:19:00,
2013-07-13 19:24:00,75.1,70.6,30.02,NE,56,2.0,10.0,86,0.00,,---,0.02,VWS V14.01,2013-07-13 23:24:00,
2013-07-13 19:29:00,75.0,70.5,30.02,NE,49,6.0,10.0,86,0.00,,---,0.02,VWS V14.01,2013-07-13 23:29:00,
2013-07-13 19:30:00,75.0,70.5,30.02,NE,45,6.0,11.0,86,0.00,,---,0.02,VWS V14.01,2013-07-13 23:30:00,
2013-07-13 19:34:00,75.0,70.5,30.02,NE,39,6.0,12.0,86,0.00,,---,0.02,VWS V14.01,2013-07-13 23:34:00,
2013-07-13 19:39:00,74.9,70.4,30.01,NE,46,9.0,12.0,86,0.00,,---,0.02,VWS V14.01,2013-07-13 23:39:00,
2013-07-13 19:44:00,74.9,70.4,30.02,NE,36,3.0,12.0,86,0.00,,---,0.02,VWS V14.01,2013-07-13 23:44:00,
2013-07-13 19:49:00,75.0,70.5,30.02,NNE,28,6.0,12.0,86,0.00,,---,0.02,VWS V14.01,2013-07-13 23:49:00,
2013-07-13 19:54:00,75.0,70.5,30.02,ENE,58,6.0,12.0,86,0.00,,---,0.02,VWS V14.01,2013-07-13 23:54:00,
2013-07-13 19:59:00,75.0,70.9,30.02,NNE,30,7.0,12.0,87,0.00,,---,0.02,VWS V14.01,2013-07-13 23:59:00,
2013-07-13 20:00:00,75.0,70.9,30.02,NNE,31,6.0,12.0,87,0.00,,---,0.02,VWS V14.01,2013-07-14 00:00:00,
2013-07-13 20:04:00,75.1,70.6,30.02,NNE,30,6.0,9.0,86,0.00,,---,0.02,VWS V14.01,2013-07-14 00:04:00,
2013-07-13 20:09:00,75.2,70.7,30.02,NNE,33,4.0,9.0,86,0.00,,---,0.02,VWS V14.01,2013-07-14 00:09:00,
2013-07-13 20:14:00,75.2,71.1,30.02,NNE,33,4.0,9.0,87,0.00,,---,0.02,VWS V14.01,2013-07-14 00:14:00,
2013-07-13 20:15:00,75.1,71.0,30.02,NNE,33,5.0,9.0,87,0.00,,---,0.02,VWS V14.01,2013-07-14 00:15:00,
2013-07-13 21:29:00,75.1,71.0,30.02,NNE,33,5.0,9.0,87,0.00,,---,0.02,VWS V14.01,2013-07-14 01:29:00,
2013-07-13 21:30:00,74.4,71.3,30.04,NE,36,6.0,9.0,90,0.00,,---,0.02,VWS V14.01,2013-07-14 01:30:00,
2013-07-13 21:34:00,74.4,71.3,30.04,NE,36,5.0,7.0,90,0.00,,---,0.02,VWS V14.01,2013-07-14 01:34:00,
2013-07-13 21:39:00,74.4,71.3,30.04,NE,53,8.0,12.0,90,0.00,,---,0.02,VWS V14.01,2013-07-14 01:39:00,
2013-07-13 21:44:00,74.4,71.3,30.04,NNE,32,7.0,12.0,90,0.00,,---,0.02,VWS V14.01,2013-07-14 01:44:00,
2013-07-13 21:49:00,74.3,71.2,30.04,NNE,32,6.0,12.0,90,0.00,,---,0.02,VWS V14.01,2013-07-14 01:49:00,
2013-07-13 21:54:00,74.3,71.2,30.04,NNE,30,5.0,12.0,90,0.00,,---,0.02,VWS V14.01,2013-07-14 01:54:00,
2013-07-13 21:59:00,74.3,71.2,30.04,NNE,24,6.0,12.0,90,0.00,,---,0.02,VWS V14.01,2013-07-14 01:59:00,
2013-07-13 22:30:00,74.3,71.2,30.04,NNE,23,7.0,12.0,90,0.00,,---,0.02,VWS V14.01,2013-07-14 02:30:00,
2013-07-13 22:31:00,74.3,71.2,30.04,NNE,24,6.0,12.0,90,0.00,,---,0.02,VWS V14.01,2013-07-14 02:31:00,
2013-07-13 22:36:00,73.5,71.0,30.04,NNE,19,4.0,7.0,92,0.01,,---,0.03,VWS V14.01,2013-07-14 02:36:00,
2013-07-13 22:41:00,73.4,70.9,30.04,NNE,19,0.0,7.0,92,0.01,,---,0.03,VWS V14.01,2013-07-14 02:41:00,
2013-07-13 22:46:00,73.4,71.3,30.04,NNE,19,0.0,7.0,93,0.01,,---,0.03,VWS V14.01,2013-07-14 02:46:00,
2013-07-13 23:00:00,73.2,71.1,30.05,NNE,22,1.0,6.0,93,0.01,,---,0.03,VWS V14.01,2013-07-14 03:00:00,
2013-07-13 23:30:00,73.1,71.0,30.05,NNE,22,0.0,4.0,93,0.01,,---,0.03,VWS V14.01,2013-07-14 03:30:00,